Saint Cloud, MN (56399)

10:22 PM CDT on July 27, 2016 (GMT -0500)
Southwest St Cloud | | Change Station

Elev 1080 ft 45.54 °N, 94.19 °W | Updated 1 second ago

Overcast
Overcast
66.2 °F
Feels Like 66.2 °F
N
3.6
Wind Variable Wind from NE
Gusts 3.6 mph

Today
High -- | Low -- °F
--% Chance of Precip.
Yesterday
High -- | Low -- °F
Precip. -- in
Pressure 30.05 in
Visibility 10.0 miles
Clouds Few 1700 ft
Overcast 4800 ft
Dew Point 42 °F
Humidity 41%
Rainfall 0.00 in
Snow Depth Not available.
5:55 AM 8:50 PM
Last Quarter, 37% visible
METAR KSTC 280253Z 05006KT 10SM FEW017 OVC048 19/17 A3003 RMK AO2 SLP174 T01890172 53022
Pressure 30.05 in
Visibility 10.0 miles
Clouds Few 1700 ft
Overcast 4800 ft
Dew Point 42 °F
Humidity 41%
Rainfall 0.00 in
Snow Depth Not available.
5:55 AM 8:50 PM
Last Quarter, 37% visible
METAR KSTC 280253Z 05006KT 10SM FEW017 OVC048 19/17 A3003 RMK AO2 SLP174 T01890172 53022

10-Day Weather Forecast

Almanac

Astronomy

Jul. 27, 2016 Rise Set
Actual Time
Civil Twilight
Nautical Twilight
Astronomical Twilight
Moon
Length of Visible Light
Length of Day
Tomorrow will be .
, % of the Moon is Illuminated

Today's Extremes

State Highs State Lows

Community

WunderPhotos

Upload Photos

1,928,037 photos uploaded!

WunderBlog® & News

Nearby

Air Quality

  Air Quality AQ Index Pollutant
Not available.

Snow Depth

Station Depth Elevation

Earthquake Activity

City Distance Mag. Time & Date
Minimum magnitude displayed is 2.5.

Coastal Water Temperatures

Place Temperature

Stations

Nearby Weather Stations

Station Location Temp. Windchill Dew Point Humidity Wind Precip. Elev Updated Type
                   

Watches & Warnings

There are currently no watches in effect.